createdAt,value
2023-01-21T00:00:00.000Z,46.46
2023-01-21T00:15:00.000Z,49.13
2023-01-21T00:30:00.000Z,48.88
2023-01-21T00:45:00.000Z,48.41
2023-01-21T01:00:00.000Z,47.68
2023-01-21T01:15:00.000Z,45.21
2023-01-21T01:30:00.000Z,42.92
2023-01-21T01:45:00.000Z,42.39
2023-01-21T02:00:00.000Z,41.15
2023-01-21T02:15:00.000Z,39.98
2023-01-21T02:30:00.000Z,39.92
2023-01-21T02:45:00.000Z,40.71
2023-01-21T03:00:00.000Z,41.07
2023-01-21T03:15:00.000Z,41.46
2023-01-21T03:30:00.000Z,41.74
2023-01-21T03:45:00.000Z,40.79
2023-01-21T04:00:00.000Z,41.02
2023-01-21T04:15:00.000Z,38.74
2023-01-21T04:30:00.000Z,38.27
2023-01-21T04:45:00.000Z,37.94
2023-01-21T05:00:00.000Z,36.86
2023-01-21T05:15:00.000Z,37.83
2023-01-21T05:30:00.000Z,36.92
2023-01-21T05:45:00.000Z,35.72
2023-01-21T06:00:00.000Z,36.26
2023-01-21T06:15:00.000Z,35.82
2023-01-21T06:30:00.000Z,33.8
2023-01-21T06:45:00.000Z,33.41
2023-01-21T07:00:00.000Z,33.86
2023-01-21T07:15:00.000Z,33.4
2023-01-21T07:30:00.000Z,33.04
2023-01-21T07:45:00.000Z,33.13
2023-01-21T08:00:00.000Z,32.58
2023-01-21T08:15:00.000Z,32.11
2023-01-21T08:30:00.000Z,35.59
2023-01-21T08:45:00.000Z,37.2
2023-01-21T09:00:00.000Z,33.27
2023-01-21T09:15:00.000Z,33.01
2023-01-21T09:30:00.000Z,32.75
2023-01-21T09:45:00.000Z,33.75
2023-01-21T10:00:00.000Z,34.95
2023-01-21T10:15:00.000Z,33.14
2023-01-21T10:30:00.000Z,31.68
2023-01-21T10:45:00.000Z,31.42
2023-01-21T11:00:00.000Z,31.35
2023-01-21T11:15:00.000Z,31.49
2023-01-21T11:30:00.000Z,33.93
2023-01-21T11:45:00.000Z,32.87
2023-01-21T12:00:00.000Z,32.78
2023-01-21T12:15:00.000Z,33.56
2023-01-21T12:30:00.000Z,33.87
2023-01-21T12:45:00.000Z,32.25
2023-01-21T13:00:00.000Z,32.64
2023-01-21T13:15:00.000Z,32.47
2023-01-21T13:30:00.000Z,31.25
2023-01-21T13:45:00.000Z,32.54
2023-01-21T14:00:00.000Z,32.05
2023-01-21T14:15:00.000Z,32.31
2023-01-21T14:30:00.000Z,32.44
2023-01-21T14:45:00.000Z,33.69
2023-01-21T15:00:00.000Z,33.53
2023-01-21T15:15:00.000Z,33.33
2023-01-21T15:30:00.000Z,31.73
2023-01-21T15:45:00.000Z,32.51
2023-01-21T16:00:00.000Z,32.01
2023-01-21T16:15:00.000Z,29.41
2023-01-21T16:30:00.000Z,29.82
2023-01-21T16:45:00.000Z,29.19
2023-01-21T17:00:00.000Z,31.59
2023-01-21T17:15:00.000Z,33.42
2023-01-21T17:30:00.000Z,34.84
2023-01-21T17:45:00.000Z,33.42
2023-01-21T18:00:00.000Z,34.62
2023-01-21T18:15:00.000Z,31.32
2023-01-21T18:30:00.000Z,31.73
2023-01-21T18:45:00.000Z,32.81
2023-01-21T19:00:00.000Z,34.71
2023-01-21T19:15:00.000Z,32.65
2023-01-21T19:30:00.000Z,29.68
2023-01-21T19:45:00.000Z,30.06
2023-01-21T20:00:00.000Z,31.47
2023-01-21T20:15:00.000Z,30.09
2023-01-21T20:30:00.000Z,30.25
2023-01-21T20:45:00.000Z,29.11
2023-01-21T21:00:00.000Z,27.96
2023-01-21T21:15:00.000Z,26.64
2023-01-21T21:30:00.000Z,25.87
2023-01-21T21:45:00.000Z,26.51
2023-01-21T22:00:00.000Z,26.51
2023-01-21T22:15:00.000Z,26.05
2023-01-21T22:30:00.000Z,26.53
2023-01-21T22:45:00.000Z,26.38
2023-01-21T23:00:00.000Z,26.51
2023-01-21T23:15:00.000Z,26.08
2023-01-21T23:30:00.000Z,27.07
2023-01-21T23:45:00.000Z,26.36
